createdAt,value
2023-03-24T00:00:01.959Z,8.31
2023-03-24T00:02:28.926Z,8.25
2023-03-24T00:04:58.788Z,8.19
2023-03-24T00:07:26.104Z,7.98
2023-03-24T00:09:54.184Z,8.13
2023-03-24T00:12:21.006Z,8.10
2023-03-24T00:14:47.882Z,8.13
2023-03-24T00:17:17.710Z,8.09
2023-03-24T00:19:47.279Z,8.17
2023-03-24T00:22:18.434Z,8.19
2023-03-24T00:24:46.505Z,8.10
2023-03-24T00:27:13.849Z,8.09
2023-03-24T00:29:41.560Z,8.14
2023-03-24T00:32:08.523Z,8.08
2023-03-24T00:34:38.682Z,8.08
2023-03-24T00:37:06.565Z,8.24
2023-03-24T00:39:33.692Z,8.08
2023-03-24T00:42:01.930Z,8.12
2023-03-24T00:44:28.994Z,7.98
2023-03-24T00:46:55.900Z,7.67
2023-03-24T00:49:42.239Z,7.86
2023-03-24T00:52:20.719Z,7.86
2023-03-24T00:54:52.122Z,7.81
2023-03-24T00:57:22.314Z,7.95
2023-03-24T00:59:50.052Z,7.95
2023-03-24T01:02:19.464Z,8.00
2023-03-24T01:04:47.436Z,7.73
2023-03-24T01:07:18.363Z,7.79
2023-03-24T01:09:51.964Z,7.90
2023-03-24T01:12:19.737Z,7.94
2023-03-24T01:14:46.609Z,7.99
2023-03-24T01:17:13.471Z,8.07
2023-03-24T01:19:41.563Z,7.85
2023-03-24T01:22:09.194Z,7.97
2023-03-24T01:24:35.972Z,7.94
2023-03-24T01:27:03.230Z,7.97
2023-03-24T01:29:30.532Z,7.82
2023-03-24T01:31:57.514Z,7.95
2023-03-24T01:34:25.016Z,7.97
2023-03-24T01:36:51.890Z,7.91
2023-03-24T01:39:18.724Z,7.72
2023-03-24T01:41:45.547Z,7.67
2023-03-24T01:44:46.295Z,7.66
2023-03-24T01:47:13.812Z,7.71
2023-03-24T01:49:46.455Z,7.78
2023-03-24T01:52:21.228Z,7.80
2023-03-24T01:54:52.284Z,7.87
2023-03-24T01:57:31.585Z,7.79
2023-03-24T02:00:01.207Z,7.82
2023-03-24T02:02:28.205Z,7.82
2023-03-24T02:04:59.493Z,7.78
2023-03-24T02:07:39.518Z,7.79
2023-03-24T02:10:09.852Z,7.62
2023-03-24T02:12:37.225Z,7.57
2023-03-24T02:15:05.369Z,7.63
2023-03-24T02:17:51.832Z,7.64
2023-03-24T02:20:18.701Z,7.75
2023-03-24T02:23:04.109Z,7.72
2023-03-24T02:25:48.989Z,7.69
2023-03-24T02:28:24.938Z,7.74
2023-03-24T02:31:02.192Z,7.75
2023-03-24T02:33:47.593Z,7.76
2023-03-24T02:36:50.766Z,7.75
2023-03-24T02:39:37.347Z,7.72
2023-03-24T02:42:18.338Z,7.69
2023-03-24T02:45:27.048Z,7.70
2023-03-24T02:48:21.908Z,7.65
2023-03-24T02:51:01.338Z,7.63
2023-03-24T02:53:50.369Z,7.64
2023-03-24T02:57:04.813Z,7.60
2023-03-24T02:59:39.545Z,7.56
2023-03-24T03:02:21.715Z,7.59
2023-03-24T03:04:54.408Z,7.54
2023-03-24T03:07:24.866Z,7.53
2023-03-24T03:10:01.741Z,7.49
2023-03-24T03:12:33.092Z,7.52
2023-03-24T03:15:17.123Z,7.49
2023-03-24T03:17:49.826Z,7.53
2023-03-24T03:20:19.412Z,7.50
2023-03-24T03:22:52.541Z,7.44
2023-03-24T03:25:24.057Z,7.39
2023-03-24T03:27:53.088Z,7.39
2023-03-24T03:30:27.970Z,7.51
2023-03-24T03:32:57.698Z,7.48
2023-03-24T03:35:28.463Z,7.40
2023-03-24T03:38:16.405Z,7.30
2023-03-24T03:40:55.797Z,7.29
2023-03-24T03:43:23.568Z,7.44
2023-03-24T03:45:50.500Z,7.43
2023-03-24T03:48:17.630Z,7.55
2023-03-24T03:50:44.990Z,7.57
2023-03-24T03:53:13.682Z,7.42
2023-03-24T03:55:41.810Z,7.56
2023-03-24T03:58:08.819Z,7.42
2023-03-24T04:00:37.031Z,7.47
2023-03-24T04:03:19.386Z,7.53
2023-03-24T04:06:04.285Z,7.57
2023-03-24T04:08:53.570Z,7.59
2023-03-24T04:11:34.877Z,7.41
2023-03-24T04:14:31.100Z,7.50
2023-03-24T04:17:24.118Z,7.44
2023-03-24T04:20:12.940Z,7.42
2023-03-24T04:23:00.942Z,7.48
2023-03-24T04:25:58.840Z,7.38
2023-03-24T04:28:40.896Z,7.44
2023-03-24T04:31:14.598Z,7.53
2023-03-24T04:33:46.464Z,7.59
2023-03-24T04:36:22.688Z,7.57
2023-03-24T04:38:53.439Z,7.63
2023-03-24T04:41:21.601Z,7.60
2023-03-24T04:43:49.028Z,7.54
2023-03-24T04:46:18.764Z,7.51
2023-03-24T04:48:48.321Z,7.34
2023-03-24T04:51:17.021Z,7.42
2023-03-24T04:53:43.986Z,7.39
2023-03-24T04:56:35.082Z,7.46
2023-03-24T04:59:02.976Z,7.35
2023-03-24T05:01:30.399Z,7.36
2023-03-24T05:04:02.802Z,7.39
2023-03-24T05:06:29.597Z,7.28
2023-03-24T05:08:59.133Z,7.30
2023-03-24T05:11:27.432Z,7.17
2023-03-24T05:13:55.103Z,7.25
2023-03-24T05:16:22.246Z,7.31
2023-03-24T05:18:49.095Z,7.27
2023-03-24T05:21:15.924Z,7.21
2023-03-24T05:23:42.685Z,7.39
2023-03-24T05:26:09.486Z,7.45
2023-03-24T05:28:36.085Z,7.48
2023-03-24T05:31:02.952Z,7.50
2023-03-24T05:33:29.667Z,7.50
2023-03-24T05:35:56.744Z,7.47
2023-03-24T05:38:23.544Z,7.48
2023-03-24T05:40:50.352Z,7.52
2023-03-24T05:43:17.192Z,7.53
2023-03-24T05:45:44.269Z,7.51
2023-03-24T05:48:11.159Z,7.56
2023-03-24T05:50:38.036Z,7.60
2023-03-24T05:53:04.765Z,7.58
2023-03-24T05:55:32.137Z,7.64
2023-03-24T05:58:02.164Z,7.74
2023-03-24T06:00:30.652Z,7.61
2023-03-24T06:02:58.407Z,7.67
2023-03-24T06:05:26.415Z,7.69
2023-03-24T06:07:58.646Z,7.81
2023-03-24T06:10:29.453Z,7.86
2023-03-24T06:12:56.642Z,7.89
2023-03-24T06:15:28.086Z,7.95
2023-03-24T06:17:55.475Z,8.01
2023-03-24T06:20:22.525Z,8.04
2023-03-24T06:22:49.834Z,8.11
2023-03-24T06:25:18.225Z,8.13
2023-03-24T06:27:48.498Z,8.03
2023-03-24T06:30:16.795Z,8.09
2023-03-24T06:32:46.634Z,8.24
2023-03-24T06:35:15.064Z,8.29
2023-03-24T06:37:42.191Z,8.36
2023-03-24T06:40:13.026Z,8.58
2023-03-24T06:42:39.906Z,8.41
2023-03-24T06:45:07.572Z,8.47
2023-03-24T06:47:34.334Z,8.46
2023-03-24T06:50:01.080Z,8.67
2023-03-24T06:52:28.106Z,8.93
2023-03-24T06:54:55.014Z,9.04
2023-03-24T06:57:22.011Z,9.20
2023-03-24T06:59:49.266Z,9.33
2023-03-24T07:02:17.136Z,9.32
2023-03-24T07:04:44.056Z,9.43
2023-03-24T07:07:30.882Z,9.26
2023-03-24T07:09:57.635Z,9.16
2023-03-24T07:12:24.406Z,9.22
2023-03-24T07:14:51.183Z,9.21
2023-03-24T07:17:17.972Z,9.24
2023-03-24T07:19:47.604Z,9.30
2023-03-24T07:22:14.348Z,9.35
2023-03-24T07:24:41.149Z,9.43
2023-03-24T07:27:08.121Z,9.62
2023-03-24T07:29:34.887Z,9.77
2023-03-24T07:32:01.617Z,9.90
2023-03-24T07:34:28.934Z,9.76
2023-03-24T07:36:56.189Z,9.82
2023-03-24T07:39:23.257Z,9.93
2023-03-24T07:41:50.007Z,10.24
2023-03-24T07:44:16.801Z,10.37
2023-03-24T07:46:43.502Z,10.66
2023-03-24T07:49:18.907Z,10.70
2023-03-24T07:51:46.700Z,10.63
2023-03-24T07:54:13.556Z,10.48
2023-03-24T07:56:40.658Z,10.58
2023-03-24T07:59:09.873Z,10.62
2023-03-24T08:01:37.678Z,10.51
2023-03-24T08:04:06.928Z,10.90
2023-03-24T08:06:34.332Z,11.04
2023-03-24T08:09:01.169Z,10.99
2023-03-24T08:11:28.033Z,10.83
2023-03-24T08:13:54.777Z,11.19
2023-03-24T08:16:21.603Z,11.31
2023-03-24T08:18:48.826Z,11.11
2023-03-24T08:21:15.656Z,11.12
2023-03-24T08:23:42.907Z,11.66
2023-03-24T08:26:12.691Z,12.38
2023-03-24T08:28:39.560Z,12.98
2023-03-24T08:31:06.842Z,13.03
2023-03-24T08:33:33.990Z,12.67
2023-03-24T08:36:01.086Z,12.69
2023-03-24T08:38:31.067Z,12.52
2023-03-24T08:41:02.367Z,12.75
2023-03-24T08:43:30.772Z,12.62
2023-03-24T08:45:58.731Z,12.51
2023-03-24T08:48:26.265Z,12.63
2023-03-24T08:50:53.020Z,12.84
2023-03-24T08:53:19.755Z,12.43
2023-03-24T08:55:46.775Z,12.53
2023-03-24T08:58:17.958Z,12.41
2023-03-24T09:00:45.703Z,12.51
2023-03-24T09:03:22.460Z,12.54
2023-03-24T09:05:50.397Z,12.64
2023-03-24T09:08:19.272Z,12.83
2023-03-24T09:10:49.174Z,12.74
2023-03-24T09:13:16.719Z,12.59
2023-03-24T09:15:48.940Z,12.52
2023-03-24T09:18:16.331Z,12.60
2023-03-24T09:20:45.001Z,12.54
2023-03-24T09:23:11.852Z,12.65
2023-03-24T09:25:38.631Z,12.98
2023-03-24T09:28:07.134Z,12.80
2023-03-24T09:30:35.135Z,12.98
2023-03-24T09:33:02.181Z,13.43
2023-03-24T09:35:29.485Z,13.52
2023-03-24T09:37:56.720Z,13.69
2023-03-24T09:40:29.317Z,13.76
2023-03-24T09:43:02.561Z,13.99
2023-03-24T09:45:31.753Z,14.02
2023-03-24T09:48:02.953Z,13.76
2023-03-24T09:50:34.450Z,14.18
2023-03-24T09:53:07.894Z,14.42
2023-03-24T09:55:35.432Z,14.66
2023-03-24T09:58:08.459Z,14.92
2023-03-24T10:00:36.898Z,14.67
2023-03-24T10:03:23.531Z,14.84
2023-03-24T10:06:06.272Z,15.38
2023-03-24T10:08:37.222Z,15.43
2023-03-24T10:11:08.102Z,15.58
2023-03-24T10:13:43.852Z,15.77
2023-03-24T10:16:34.498Z,15.72
2023-03-24T10:19:25.079Z,15.45
2023-03-24T10:22:12.025Z,15.66
2023-03-24T10:24:45.167Z,15.42
2023-03-24T10:27:45.917Z,15.44
2023-03-24T10:30:28.215Z,15.48
2023-03-24T10:32:55.215Z,15.61
2023-03-24T10:35:25.791Z,15.32
2023-03-24T10:37:52.653Z,15.23
2023-03-24T10:40:22.346Z,15.27
2023-03-24T10:42:49.944Z,15.29
2023-03-24T10:45:35.151Z,15.33
2023-03-24T10:48:03.136Z,15.71
2023-03-24T10:50:33.618Z,15.81
2023-03-24T10:53:00.398Z,16.03
2023-03-24T10:55:31.890Z,16.26
2023-03-24T10:58:00.003Z,16.42
2023-03-24T11:00:32.119Z,15.99
2023-03-24T11:03:06.164Z,16.07
2023-03-24T11:05:35.502Z,16.09
2023-03-24T11:08:38.638Z,15.98
2023-03-24T11:11:14.887Z,16.08
2023-03-24T11:13:42.986Z,16.23
2023-03-24T11:16:14.235Z,16.17
2023-03-24T11:19:01.721Z,16.16
2023-03-24T11:21:30.303Z,16.20
2023-03-24T11:24:01.929Z,16.21
2023-03-24T11:26:34.336Z,16.25
2023-03-24T11:29:10.456Z,16.37
2023-03-24T11:31:39.411Z,16.62
2023-03-24T11:34:24.355Z,16.54
2023-03-24T11:37:21.647Z,16.39
2023-03-24T11:40:13.429Z,16.17
2023-03-24T11:42:48.258Z,16.41
2023-03-24T11:45:28.674Z,16.38
2023-03-24T11:47:59.024Z,16.17
2023-03-24T11:50:29.479Z,16.31
2023-03-24T11:53:12.570Z,16.45
2023-03-24T11:56:07.441Z,16.43
2023-03-24T11:58:40.907Z,16.54
2023-03-24T12:01:29.437Z,16.30
2023-03-24T12:03:58.975Z,16.38
2023-03-24T12:06:34.136Z,16.36
2023-03-24T12:09:21.490Z,16.54
2023-03-24T12:11:54.358Z,16.31
2023-03-24T12:14:31.842Z,16.45
2023-03-24T12:17:14.559Z,16.60
2023-03-24T12:20:03.724Z,16.46
2023-03-24T12:22:43.317Z,16.58
2023-03-24T12:25:40.356Z,16.55
2023-03-24T12:28:10.185Z,16.53
2023-03-24T12:31:04.390Z,16.38
2023-03-24T12:33:45.102Z,16.54
2023-03-24T12:36:15.632Z,16.57
2023-03-24T12:39:10.595Z,16.59
2023-03-24T12:42:04.898Z,16.79
2023-03-24T12:44:43.299Z,16.84
2023-03-24T12:47:37.744Z,16.40
2023-03-24T12:50:27.416Z,16.46
2023-03-24T12:53:16.372Z,16.52
2023-03-24T12:55:57.126Z,16.50
2023-03-24T12:58:43.276Z,16.43
2023-03-24T13:01:39.272Z,16.27
2023-03-24T13:04:22.090Z,16.35
2023-03-24T13:06:54.754Z,16.37
2023-03-24T13:09:45.550Z,16.42
2023-03-24T13:12:21.790Z,16.31
2023-03-24T13:15:05.379Z,16.22
2023-03-24T13:17:39.531Z,16.15
2023-03-24T13:20:08.442Z,16.23
2023-03-24T13:22:36.691Z,16.17
2023-03-24T13:25:09.780Z,16.07
2023-03-24T13:27:39.566Z,15.96
2023-03-24T13:30:36.684Z,15.92
2023-03-24T13:33:30.077Z,15.88
2023-03-24T13:36:39.697Z,15.82
2023-03-24T13:39:13.119Z,15.79
2023-03-24T13:41:42.254Z,15.71
2023-03-24T13:44:39.890Z,15.65
2023-03-24T13:47:09.431Z,15.65
2023-03-24T13:49:36.491Z,15.65
2023-03-24T13:52:06.616Z,15.67
2023-03-24T13:54:37.044Z,15.67
2023-03-24T13:57:11.791Z,15.63
2023-03-24T14:00:08.998Z,15.69
2023-03-24T14:02:51.238Z,15.70
2023-03-24T14:05:55.440Z,15.50
2023-03-24T14:08:35.552Z,15.37
2023-03-24T14:11:02.291Z,15.26
2023-03-24T14:13:38.225Z,15.22
2023-03-24T14:16:41.151Z,15.21
2023-03-24T14:19:09.864Z,15.28
2023-03-24T14:21:37.414Z,15.17
2023-03-24T14:24:22.668Z,15.11
2023-03-24T14:26:49.724Z,15.01
2023-03-24T14:29:54.196Z,14.93
2023-03-24T14:32:23.232Z,14.64
2023-03-24T14:35:00.359Z,14.67
2023-03-24T14:37:28.106Z,14.72
2023-03-24T14:39:59.807Z,14.57
2023-03-24T14:42:32.584Z,14.51
2023-03-24T14:45:00.980Z,14.37
2023-03-24T14:47:31.168Z,14.52
2023-03-24T14:50:00.329Z,14.40
2023-03-24T14:52:36.631Z,14.25
2023-03-24T14:55:07.565Z,14.22
2023-03-24T14:57:41.384Z,13.98
2023-03-24T15:00:35.979Z,13.93
2023-03-24T15:03:16.802Z,13.79
2023-03-24T15:05:43.749Z,13.72
2023-03-24T15:08:23.892Z,13.60
2023-03-24T15:11:04.258Z,13.68
2023-03-24T15:13:53.850Z,13.58
2023-03-24T15:16:26.220Z,13.60
2023-03-24T15:19:02.073Z,13.59
2023-03-24T15:21:47.356Z,13.72
2023-03-24T15:24:23.384Z,13.59
2023-03-24T15:26:53.188Z,13.60
2023-03-24T15:29:20.002Z,13.74
2023-03-24T15:31:46.969Z,13.75
2023-03-24T15:34:30.037Z,13.99
2023-03-24T15:37:05.504Z,14.08
2023-03-24T15:39:40.027Z,14.16
2023-03-24T15:42:16.010Z,14.06
2023-03-24T15:44:43.521Z,13.96
2023-03-24T15:47:30.408Z,13.76
2023-03-24T15:49:59.003Z,13.78
2023-03-24T15:52:31.783Z,13.59
2023-03-24T15:55:09.122Z,13.36
2023-03-24T15:57:41.289Z,13.45
2023-03-24T16:00:16.732Z,13.45
2023-03-24T16:02:55.002Z,13.49
2023-03-24T16:05:29.945Z,13.45
2023-03-24T16:08:01.416Z,13.31
2023-03-24T16:10:40.581Z,13.29
2023-03-24T16:13:17.601Z,13.33
2023-03-24T16:16:05.656Z,13.32
2023-03-24T16:18:34.654Z,13.34
2023-03-24T16:21:02.855Z,13.30
2023-03-24T16:23:32.640Z,13.28
2023-03-24T16:25:59.272Z,13.20
2023-03-24T16:28:27.829Z,13.19
2023-03-24T16:31:01.332Z,13.20
2023-03-24T16:33:30.412Z,13.19
2023-03-24T16:35:57.329Z,13.20
2023-03-24T16:38:24.339Z,13.08
2023-03-24T16:40:54.345Z,13.05
2023-03-24T16:43:21.387Z,12.97
2023-03-24T16:45:49.301Z,12.90
2023-03-24T16:48:16.472Z,12.85
2023-03-24T16:50:46.777Z,12.81
2023-03-24T16:53:13.769Z,12.89
2023-03-24T16:55:44.663Z,12.83
2023-03-24T16:58:14.180Z,12.78
2023-03-24T17:00:43.915Z,12.74
2023-03-24T17:03:10.975Z,12.69
2023-03-24T17:05:41.501Z,12.61
2023-03-24T17:08:08.319Z,12.60
2023-03-24T17:10:35.050Z,12.49
2023-03-24T17:13:02.207Z,12.37
2023-03-24T17:15:30.016Z,12.27
2023-03-24T17:17:57.034Z,12.20
2023-03-24T17:20:24.679Z,12.18
2023-03-24T17:22:52.564Z,12.04
2023-03-24T17:25:22.548Z,12.00
2023-03-24T17:27:50.557Z,12.00
2023-03-24T17:30:19.652Z,11.95
2023-03-24T17:32:46.794Z,11.97
2023-03-24T17:35:15.000Z,11.95
2023-03-24T17:37:41.969Z,11.90
2023-03-24T17:40:11.983Z,11.83
2023-03-24T17:42:40.599Z,11.83
2023-03-24T17:45:09.070Z,11.78
2023-03-24T17:47:36.057Z,11.74
2023-03-24T17:50:09.636Z,11.70
2023-03-24T17:52:41.099Z,11.76
2023-03-24T17:55:08.867Z,11.68
2023-03-24T17:57:35.665Z,11.66
2023-03-24T18:00:02.656Z,11.67
2023-03-24T18:02:29.422Z,11.67
2023-03-24T18:04:56.294Z,11.58
2023-03-24T18:07:23.280Z,11.58
2023-03-24T18:09:51.401Z,11.51
2023-03-24T18:12:18.766Z,11.42
2023-03-24T18:14:45.540Z,11.24
2023-03-24T18:17:12.831Z,11.28
2023-03-24T18:19:40.618Z,11.40
2023-03-24T18:22:07.545Z,11.42
2023-03-24T18:24:34.520Z,11.31
2023-03-24T18:27:02.688Z,11.31
2023-03-24T18:29:30.467Z,11.17
2023-03-24T18:31:57.519Z,10.99
2023-03-24T18:34:24.382Z,11.07
2023-03-24T18:36:50.970Z,11.10
2023-03-24T18:39:18.017Z,11.09
2023-03-24T18:41:44.796Z,11.19
2023-03-24T18:44:13.180Z,11.30
2023-03-24T18:46:40.385Z,11.28
2023-03-24T18:49:07.423Z,11.32
2023-03-24T18:51:35.653Z,11.24
2023-03-24T18:54:02.550Z,11.27
2023-03-24T18:56:29.276Z,11.22
2023-03-24T18:58:56.339Z,11.21
2023-03-24T19:01:26.203Z,11.18
2023-03-24T19:03:53.805Z,10.99
2023-03-24T19:06:20.876Z,11.08
2023-03-24T19:08:52.279Z,11.10
2023-03-24T19:11:19.412Z,11.08
2023-03-24T19:13:49.791Z,11.29
2023-03-24T19:16:17.961Z,11.46
2023-03-24T19:18:44.818Z,11.46
2023-03-24T19:21:12.868Z,11.40
2023-03-24T19:23:39.582Z,11.32
2023-03-24T19:26:06.248Z,11.22
2023-03-24T19:28:35.606Z,11.15
2023-03-24T19:31:11.255Z,11.11
2023-03-24T19:33:38.709Z,11.10
2023-03-24T19:36:06.591Z,10.95
2023-03-24T19:38:33.719Z,10.88
2023-03-24T19:41:09.716Z,10.75
2023-03-24T19:43:37.216Z,10.51
2023-03-24T19:46:05.870Z,10.19
2023-03-24T19:48:35.134Z,10.16
2023-03-24T19:51:04.724Z,10.23
2023-03-24T19:53:33.021Z,9.96
2023-03-24T19:56:01.472Z,9.95
2023-03-24T19:58:32.097Z,10.00
2023-03-24T20:01:00.339Z,9.78
2023-03-24T20:03:33.443Z,9.90
2023-03-24T20:06:11.003Z,9.88
2023-03-24T20:08:38.883Z,9.75
2023-03-24T20:11:13.179Z,9.59
2023-03-24T20:13:43.380Z,9.57
2023-03-24T20:16:10.547Z,9.53
2023-03-24T20:18:41.456Z,9.42
2023-03-24T20:21:10.736Z,9.34
2023-03-24T20:23:47.105Z,9.31
2023-03-24T20:26:14.988Z,9.28
2023-03-24T20:28:42.257Z,9.21
2023-03-24T20:31:12.758Z,9.01
2023-03-24T20:33:40.500Z,8.95
2023-03-24T20:36:08.926Z,8.91
2023-03-24T20:38:38.041Z,9.05
2023-03-24T20:41:07.581Z,9.02
2023-03-24T20:43:39.264Z,9.04
2023-03-24T20:46:13.306Z,9.20
2023-03-24T20:48:41.422Z,9.07
2023-03-24T20:51:09.320Z,9.15
2023-03-24T20:53:36.144Z,9.10
2023-03-24T20:56:08.011Z,9.08
2023-03-24T20:58:38.207Z,9.15
2023-03-24T21:01:06.323Z,9.24
2023-03-24T21:03:33.017Z,9.26
2023-03-24T21:05:59.680Z,9.06
2023-03-24T21:08:26.386Z,9.16
2023-03-24T21:10:57.053Z,9.17
2023-03-24T21:13:24.510Z,8.97
2023-03-24T21:15:51.542Z,8.97
2023-03-24T21:18:18.362Z,9.02
2023-03-24T21:20:55.570Z,8.99
2023-03-24T21:23:24.361Z,9.10
2023-03-24T21:25:52.306Z,8.99
2023-03-24T21:28:19.299Z,9.06
2023-03-24T21:30:46.527Z,9.00
2023-03-24T21:33:14.775Z,8.90
2023-03-24T21:35:41.668Z,8.89
2023-03-24T21:38:09.636Z,8.71
2023-03-24T21:40:36.399Z,8.78
2023-03-24T21:43:05.869Z,8.76
2023-03-24T21:45:36.059Z,8.66
2023-03-24T21:48:06.811Z,8.72
2023-03-24T21:50:39.466Z,8.66
2023-03-24T21:53:14.947Z,8.74
2023-03-24T21:55:48.679Z,8.65
2023-03-24T21:58:15.876Z,8.61
2023-03-24T22:00:45.188Z,8.57
2023-03-24T22:03:11.875Z,8.55
2023-03-24T22:05:39.785Z,8.52
2023-03-24T22:08:07.216Z,8.36
2023-03-24T22:10:35.038Z,8.31
2023-03-24T22:13:03.069Z,8.24
2023-03-24T22:15:32.503Z,8.29
2023-03-24T22:18:00.057Z,8.48
2023-03-24T22:20:28.351Z,8.58
2023-03-24T22:22:55.057Z,8.48
2023-03-24T22:25:21.735Z,8.57
2023-03-24T22:27:50.762Z,8.53
2023-03-24T22:30:18.794Z,8.52
2023-03-24T22:32:45.410Z,8.50
2023-03-24T22:35:12.107Z,8.56
2023-03-24T22:37:38.653Z,8.57
2023-03-24T22:40:06.769Z,8.34
2023-03-24T22:42:33.374Z,8.37
2023-03-24T22:44:59.990Z,8.42
2023-03-24T22:47:27.562Z,8.40
2023-03-24T22:49:54.199Z,8.36
2023-03-24T22:52:20.800Z,8.38
2023-03-24T22:54:47.406Z,8.36
2023-03-24T22:57:14.046Z,8.30
2023-03-24T22:59:40.692Z,8.37
2023-03-24T23:02:10.297Z,8.36
2023-03-24T23:04:37.269Z,8.35
2023-03-24T23:07:05.290Z,8.34
2023-03-24T23:09:31.857Z,8.23
2023-03-24T23:11:58.448Z,8.26
2023-03-24T23:14:26.471Z,8.29
2023-03-24T23:16:54.399Z,8.37
2023-03-24T23:19:21.060Z,8.32
2023-03-24T23:21:47.675Z,8.25
2023-03-24T23:24:14.262Z,8.21
2023-03-24T23:26:40.870Z,8.23
2023-03-24T23:29:07.513Z,8.23
2023-03-24T23:31:35.749Z,8.19
2023-03-24T23:34:04.453Z,8.24
2023-03-24T23:36:34.273Z,8.10
2023-03-24T23:39:01.173Z,7.99
2023-03-24T23:41:27.914Z,8.04
2023-03-24T23:43:55.298Z,7.84
2023-03-24T23:46:23.998Z,7.87
2023-03-24T23:48:50.936Z,7.87
2023-03-24T23:51:17.534Z,7.92
2023-03-24T23:53:44.169Z,8.04
2023-03-24T23:56:14.209Z,7.92
2023-03-24T23:58:42.651Z,7.90
